createdAt,value
2019-04-23T00:01:12.259Z,99767.47
2019-04-23T00:03:34.445Z,99768.87
2019-04-23T00:06:08.561Z,99768.00
2019-04-23T00:08:44.831Z,99773.48
2019-04-23T00:11:08.677Z,99763.00
2019-04-23T00:13:38.491Z,99768.41
2019-04-23T00:16:18.675Z,99766.60
2019-04-23T00:21:20.730Z,99755.84
2019-04-23T00:24:04.012Z,99759.00
2019-04-23T00:26:34.372Z,99756.75
2019-04-23T00:28:58.930Z,99756.34
2019-04-23T00:33:57.329Z,99749.71
2019-04-23T00:36:32.135Z,99747.78
2019-04-23T00:38:56.662Z,99746.88
2019-04-23T00:41:33.449Z,99741.41
2019-04-23T00:46:36.818Z,99738.42
2019-04-23T00:49:05.843Z,99737.61
2019-04-23T00:51:36.964Z,99733.78
2019-04-23T00:54:06.018Z,99731.40
2019-04-23T00:56:58.354Z,99731.12
2019-04-23T00:59:05.398Z,99728.55
2019-04-23T01:01:45.835Z,99731.36
2019-04-23T01:04:10.217Z,99724.42
2019-04-23T01:06:43.462Z,99722.80
2019-04-23T01:09:08.191Z,99724.05
2019-04-23T01:11:43.532Z,99717.02
2019-04-23T01:14:13.647Z,99714.05
2019-04-23T01:16:59.764Z,99720.49
2019-04-23T01:21:47.457Z,99714.64
2019-04-23T01:24:37.185Z,99711.48
2019-04-23T01:27:51.389Z,99706.76
2019-04-23T01:32:36.563Z,99699.23
2019-04-23T01:35:15.367Z,99699.51
2019-04-23T01:37:36.717Z,99698.78
2019-04-23T01:40:11.812Z,99702.52
2019-04-23T01:42:40.608Z,99704.01
2019-04-23T01:45:13.339Z,99691.72
2019-04-23T01:47:47.183Z,99687.41
2019-04-23T01:50:14.072Z,99692.94
2019-04-23T01:52:50.610Z,99688.35
2019-04-23T01:55:14.965Z,99680.11
2019-04-23T02:02:49.951Z,99681.57
2019-04-23T02:05:24.380Z,99679.96
2019-04-23T02:07:50.928Z,99679.08
2019-04-23T02:10:38.052Z,99670.36
2019-04-23T02:12:55.731Z,99668.75
2019-04-23T02:15:23.022Z,99662.17
2019-04-23T02:23:14.869Z,99660.78
2019-04-23T02:25:49.050Z,99658.58
2019-04-23T02:28:11.903Z,99653.72
2019-04-23T02:30:57.812Z,99653.55
2019-04-23T02:33:29.833Z,99647.52
2019-04-23T02:35:56.192Z,99650.14
2019-04-23T02:38:27.263Z,99646.70
2019-04-23T02:50:43.894Z,99636.53
2019-04-23T02:56:16.731Z,99636.22
2019-04-23T02:58:38.662Z,99635.16
2019-04-23T03:01:15.115Z,99646.67
2019-04-23T03:03:35.757Z,99634.27
2019-04-23T03:08:33.051Z,99633.36
2019-04-23T03:11:09.809Z,99629.60
2019-04-23T03:13:37.625Z,99630.45
2019-04-23T03:18:53.739Z,99626.19
2019-04-23T03:21:52.834Z,99623.02
2019-04-23T03:29:43.437Z,99623.36
2019-04-23T03:33:29.530Z,99614.54
2019-04-23T03:42:16.312Z,99602.59
2019-04-23T03:47:20.648Z,99614.29
2019-04-23T03:49:46.361Z,99611.76
2019-04-23T03:52:25.389Z,99610.45
2019-04-23T03:55:03.262Z,99606.70
2019-04-23T03:57:24.691Z,99608.80
2019-04-23T03:59:55.101Z,99606.38
2019-04-23T04:04:45.158Z,99607.47
2019-04-23T04:07:27.858Z,99611.08
2019-04-23T04:09:57.765Z,99607.02
2019-04-23T04:14:54.414Z,99600.52
2019-04-23T04:17:33.034Z,99599.75
2019-04-23T04:19:56.295Z,99599.25
2019-04-23T04:25:21.231Z,99594.05
2019-04-23T04:27:43.351Z,99594.05
2019-04-23T04:30:01.575Z,99607.43
2019-04-23T04:32:31.595Z,99608.07
2019-04-23T04:35:18.808Z,99609.56
2019-04-23T04:40:10.868Z,99592.67
2019-04-23T04:43:22.514Z,99592.67
2019-04-23T04:45:30.568Z,99603.82
2019-04-23T04:47:42.603Z,99609.20
2019-04-23T04:52:48.796Z,99595.74
2019-04-23T04:55:16.200Z,99595.74
2019-04-23T04:57:41.697Z,99591.50
2019-04-23T05:02:52.779Z,99582.05
2019-04-23T05:05:48.450Z,99594.00
2019-04-23T05:10:30.222Z,99576.06
2019-04-23T05:12:56.399Z,99576.06
2019-04-23T05:15:07.264Z,99587.60
2019-04-23T05:20:36.739Z,99584.49
2019-04-23T05:23:16.479Z,99585.12
2019-04-23T05:25:31.808Z,99588.35
2019-04-23T05:28:13.885Z,99577.38
2019-04-23T05:33:14.138Z,99575.89
2019-04-23T05:36:02.016Z,99579.22
2019-04-23T05:38:22.319Z,99585.17
2019-04-23T05:40:45.310Z,99579.50
2019-04-23T05:43:15.840Z,99574.16
2019-04-23T05:45:39.898Z,99574.69
2019-04-23T05:48:19.844Z,99579.02
2019-04-23T05:51:00.840Z,99576.89
2019-04-23T05:53:18.404Z,99558.66
2019-04-23T05:55:47.632Z,99558.66
2019-04-23T05:58:22.110Z,99570.00
2019-04-23T06:00:59.917Z,99568.70
2019-04-23T06:03:24.874Z,99569.58
2019-04-23T06:06:03.302Z,99567.13
2019-04-23T06:08:32.076Z,99559.92
2019-04-23T06:11:05.642Z,99556.86
2019-04-23T06:13:36.570Z,99547.88
2019-04-23T06:15:59.671Z,99547.76
2019-04-23T06:18:38.553Z,99549.77
2019-04-23T06:21:12.873Z,99549.77
2019-04-23T06:23:46.384Z,99555.00
2019-04-23T06:28:33.624Z,99559.39
2019-04-23T06:31:06.430Z,99556.73
2019-04-23T06:33:43.385Z,99556.73
2019-04-23T06:36:17.052Z,99557.76
2019-04-23T06:41:15.696Z,99561.06
2019-04-23T06:44:00.476Z,99554.47
2019-04-23T06:46:25.320Z,99560.45
2019-04-23T06:48:54.856Z,99561.94
2019-04-23T06:51:31.125Z,99558.91
2019-04-23T06:53:59.968Z,99560.83
2019-04-23T06:59:02.458Z,99554.61
2019-04-23T07:01:31.072Z,99555.64
2019-04-23T07:04:02.554Z,99552.04
2019-04-23T07:06:31.505Z,99551.36
2019-04-23T07:11:42.966Z,99543.55
2019-04-23T07:16:39.940Z,99542.19
2019-04-23T07:19:09.223Z,99533.45
2019-04-23T07:21:54.117Z,99525.61
2019-04-23T07:29:12.097Z,99523.72
2019-04-23T07:31:40.904Z,99524.95
2019-04-23T07:34:05.499Z,99519.62
2019-04-23T07:36:44.640Z,99521.89
2019-04-23T07:39:21.958Z,99518.32
2019-04-23T07:42:28.032Z,99515.34
2019-04-23T07:44:56.608Z,99520.67
2019-04-23T07:47:45.228Z,99518.86
2019-04-23T07:50:24.568Z,99509.84
2019-04-23T07:52:51.550Z,99509.09
2019-04-23T07:55:30.112Z,99504.51
2019-04-23T07:57:54.985Z,99510.33
2019-04-23T08:00:28.888Z,99502.61
2019-04-23T08:03:04.215Z,99506.33
2019-04-23T08:05:24.084Z,99507.00
2019-04-23T08:07:55.848Z,99507.98
2019-04-23T08:10:29.716Z,99505.61
2019-04-23T08:13:04.253Z,99502.03
2019-04-23T08:15:29.165Z,99505.17
2019-04-23T08:17:59.005Z,99500.51
2019-04-23T08:20:40.683Z,99504.05
2019-04-23T08:23:03.771Z,99498.83
2019-04-23T08:25:45.533Z,99496.07
2019-04-23T08:28:25.908Z,99502.91
2019-04-23T08:30:46.552Z,99495.89
2019-04-23T08:33:19.180Z,99497.73
2019-04-23T08:35:55.700Z,99500.29
2019-04-23T08:38:26.618Z,99495.38
2019-04-23T08:43:36.431Z,99492.31
2019-04-23T08:46:15.554Z,99497.45
2019-04-23T08:48:49.703Z,99498.15
2019-04-23T08:51:31.925Z,99496.15
2019-04-23T08:53:51.635Z,99494.48
2019-04-23T08:56:27.489Z,99485.16
2019-04-23T08:58:49.347Z,99483.72
2019-04-23T09:01:16.955Z,99483.84
2019-04-23T09:03:47.888Z,99477.95
2019-04-23T09:06:24.462Z,99478.95
2019-04-23T09:08:49.982Z,99473.75
2019-04-23T09:11:41.822Z,99465.00
2019-04-23T09:16:28.886Z,99467.19
2019-04-23T09:19:02.621Z,99465.73
2019-04-23T09:21:27.023Z,99465.22
2019-04-23T09:23:56.169Z,99467.98
2019-04-23T09:26:26.013Z,99466.70
2019-04-23T09:29:02.566Z,99462.16
2019-04-23T09:34:47.835Z,99456.23
2019-04-23T09:40:18.868Z,99453.89
2019-04-23T09:42:54.328Z,99458.41
2019-04-23T09:48:02.401Z,99461.24
2019-04-23T09:50:36.621Z,99456.32
2019-04-23T09:55:39.749Z,99455.72
2019-04-23T09:58:11.797Z,99459.84
2019-04-23T10:00:47.004Z,99445.61
2019-04-23T10:03:05.041Z,99445.86
2019-04-23T10:05:30.904Z,99446.20
2019-04-23T10:08:01.637Z,99444.63
2019-04-23T10:10:22.730Z,99439.33
2019-04-23T10:12:53.657Z,99434.00
2019-04-23T10:15:28.820Z,99442.86
2019-04-23T10:17:54.274Z,99438.53
2019-04-23T10:20:24.807Z,99434.80
2019-04-23T10:22:54.552Z,99431.05
2019-04-23T10:25:24.028Z,99436.96
2019-04-23T10:27:58.650Z,99436.83
2019-04-23T10:30:24.472Z,99428.30
2019-04-23T10:32:53.755Z,99423.27
2019-04-23T10:35:35.315Z,99423.52
2019-04-23T10:38:01.866Z,99424.20
2019-04-23T10:40:30.260Z,99420.16
2019-04-23T10:42:57.898Z,99413.65
2019-04-23T10:46:10.554Z,99408.89
2019-04-23T10:49:22.215Z,99405.16
2019-04-23T10:51:51.622Z,99398.66
2019-04-23T10:54:23.535Z,99405.92
2019-04-23T10:59:30.120Z,99390.80
2019-04-23T11:02:15.983Z,99388.44
2019-04-23T11:07:20.867Z,99382.07
2019-04-23T11:12:23.404Z,99379.73
2019-04-23T11:14:52.760Z,99373.84
2019-04-23T11:17:19.474Z,99372.06
2019-04-23T11:19:58.231Z,99371.25
2019-04-23T11:22:38.870Z,99371.09
2019-04-23T11:27:24.276Z,99368.97
2019-04-23T11:29:52.467Z,99374.51
2019-04-23T11:32:42.894Z,99363.52
2019-04-23T11:37:36.892Z,99359.66
2019-04-23T11:40:01.720Z,99356.72
2019-04-23T11:42:32.737Z,99355.30
2019-04-23T11:44:56.663Z,99357.48
2019-04-23T11:48:05.264Z,99357.05
2019-04-23T11:52:36.447Z,99358.52
2019-04-23T11:55:07.328Z,99357.67
2019-04-23T11:57:40.777Z,99367.47
2019-04-23T11:59:59.476Z,99362.35
2019-04-23T12:02:49.799Z,99364.83
2019-04-23T12:08:38.077Z,99357.48
2019-04-23T12:14:09.592Z,99354.36
2019-04-23T12:16:47.137Z,99349.12
2019-04-23T12:19:33.394Z,99343.98
2019-04-23T12:21:43.869Z,99335.33
2019-04-23T12:24:17.157Z,99341.88
2019-04-23T12:26:44.370Z,99340.63
2019-04-23T12:29:20.330Z,99336.67
2019-04-23T12:31:49.181Z,99342.67
2019-04-23T12:34:15.043Z,99331.62
2019-04-23T12:36:46.667Z,99337.35
2019-04-23T12:39:27.045Z,99332.95
2019-04-23T12:41:51.191Z,99329.63
2019-04-23T12:44:27.002Z,99331.71
2019-04-23T12:46:54.241Z,99332.31
2019-04-23T12:49:44.600Z,99326.91
2019-04-23T12:52:05.000Z,99322.95
2019-04-23T12:54:51.721Z,99328.72
2019-04-23T12:59:36.769Z,99311.95
2019-04-23T13:02:33.345Z,99318.09
2019-04-23T13:04:41.846Z,99316.03
2019-04-23T13:07:17.511Z,99312.28
2019-04-23T13:09:54.548Z,99309.96
2019-04-23T13:12:29.284Z,99303.88
2019-04-23T13:14:55.543Z,99303.80
2019-04-23T13:17:29.727Z,99302.33
2019-04-23T13:19:54.709Z,99302.86
2019-04-23T13:22:23.957Z,99298.51
2019-04-23T13:25:10.108Z,99296.11
2019-04-23T13:33:01.129Z,99288.79
2019-04-23T13:37:59.411Z,99284.44
2019-04-23T13:40:36.489Z,99289.14
2019-04-23T13:43:27.110Z,99294.48
2019-04-23T13:48:06.082Z,99289.46
2019-04-23T13:53:31.636Z,99278.80
2019-04-23T13:55:27.917Z,99272.89
2019-04-23T14:00:44.778Z,99274.06
2019-04-23T14:03:03.212Z,99285.34
2019-04-23T14:06:00.960Z,99284.87
2019-04-23T14:08:41.614Z,99283.87
2019-04-23T14:10:53.246Z,99283.72
2019-04-23T14:13:50.857Z,99277.55
2019-04-23T14:16:04.658Z,99274.75
2019-04-23T14:18:51.673Z,99277.02
2019-04-23T14:21:05.859Z,99273.87
2019-04-23T14:23:54.129Z,99265.05
2019-04-23T14:31:04.785Z,99254.97
2019-04-23T14:33:51.215Z,99249.20
2019-04-23T14:36:10.928Z,99256.59
2019-04-23T14:41:21.799Z,99248.81
2019-04-23T14:43:48.743Z,99247.36
2019-04-23T14:51:24.167Z,99237.69
2019-04-23T14:53:43.891Z,99231.40
2019-04-23T14:56:22.550Z,99229.09
2019-04-23T14:58:57.455Z,99227.20
2019-04-23T15:01:27.367Z,99236.55
2019-04-23T15:08:59.194Z,99229.50
2019-04-23T15:11:29.412Z,99220.56
2019-04-23T15:13:55.391Z,99223.27
2019-04-23T15:21:55.492Z,99214.72
2019-04-23T15:24:25.104Z,99214.96
2019-04-23T15:29:06.060Z,99216.70
2019-04-23T15:31:59.242Z,99207.38
2019-04-23T15:34:17.674Z,99215.45
2019-04-23T15:37:15.565Z,99221.25
2019-04-23T15:39:32.205Z,99211.89
2019-04-23T15:44:16.127Z,99222.30
2019-04-23T15:49:31.618Z,99222.63
2019-04-23T15:52:17.066Z,99217.88
2019-04-23T15:54:35.720Z,99218.02
2019-04-23T15:57:02.480Z,99216.34
2019-04-23T15:59:34.663Z,99213.64
2019-04-23T16:01:42.618Z,99220.59
2019-04-23T16:04:06.096Z,99215.76
2019-04-23T16:06:38.517Z,99216.31
2019-04-23T16:09:28.078Z,99220.84
2019-04-23T16:11:59.645Z,99218.78
2019-04-23T16:14:50.354Z,99223.09
2019-04-23T16:17:13.806Z,99223.58
2019-04-23T16:22:36.636Z,99197.22
2019-04-23T16:27:38.006Z,99214.37
2019-04-23T16:33:11.287Z,99205.73
2019-04-23T16:36:01.928Z,99209.03
2019-04-23T16:38:32.513Z,99208.16
2019-04-23T16:40:47.637Z,99205.41
2019-04-23T16:43:40.397Z,99204.30
2019-04-23T16:46:03.115Z,99203.57
2019-04-23T16:48:46.470Z,99206.38
2019-04-23T16:53:37.366Z,99203.61
2019-04-23T16:56:18.539Z,99204.64
2019-04-23T17:03:31.234Z,99207.15
2019-04-23T17:06:15.671Z,99199.92
2019-04-23T17:08:52.892Z,99198.06
2019-04-23T17:11:08.942Z,99199.70
2019-04-23T17:16:15.284Z,99197.38
2019-04-23T17:18:41.108Z,99193.65
2019-04-23T17:21:11.821Z,99197.99
2019-04-23T17:26:23.949Z,99199.34
2019-04-23T17:28:44.440Z,99200.81
2019-04-23T17:33:54.603Z,99205.91
2019-04-23T17:39:10.640Z,99194.36
2019-04-23T17:42:05.440Z,99197.21
2019-04-23T17:44:38.611Z,99200.73
2019-04-23T17:47:08.700Z,99205.69
2019-04-23T17:49:44.574Z,99206.54
2019-04-23T17:52:17.038Z,99198.27
2019-04-23T17:54:42.292Z,99201.98
2019-04-23T18:00:04.875Z,99204.92
2019-04-23T18:05:04.111Z,99210.57
2019-04-23T18:07:39.182Z,99202.20
2019-04-23T18:12:38.992Z,99205.94
2019-04-23T18:15:03.390Z,99207.63
2019-04-23T18:20:24.787Z,99219.92
2019-04-23T18:23:04.791Z,99228.12
2019-04-23T18:25:30.776Z,99233.66
2019-04-23T18:31:06.207Z,99233.44
2019-04-23T18:34:05.314Z,99240.64
2019-04-23T18:36:14.837Z,99239.48
2019-04-23T18:38:52.693Z,99242.77
2019-04-23T18:41:10.717Z,99244.97
2019-04-23T18:43:55.139Z,99240.89
2019-04-23T18:48:53.328Z,99250.97
2019-04-23T18:51:21.375Z,99250.96
2019-04-23T18:54:08.175Z,99254.77
2019-04-23T18:56:31.155Z,99256.41
2019-04-23T18:59:11.015Z,99256.11
2019-04-23T19:01:30.980Z,99258.04
2019-04-23T19:07:05.251Z,99259.38
2019-04-23T19:15:33.304Z,99262.58
2019-04-23T19:17:56.625Z,99268.61
2019-04-23T19:20:38.292Z,99265.34
2019-04-23T19:25:22.872Z,99272.39
2019-04-23T19:27:52.121Z,99273.65
2019-04-23T19:30:43.119Z,99274.81
2019-04-23T19:33:13.685Z,99275.22
2019-04-23T19:38:13.585Z,99279.22
2019-04-23T19:40:51.891Z,99279.71
2019-04-23T19:43:19.420Z,99279.69
2019-04-23T19:45:55.748Z,99286.53
2019-04-23T19:53:32.208Z,99288.61
2019-04-23T19:56:04.349Z,99278.19
2019-04-23T19:58:32.453Z,99281.89
2019-04-23T20:01:13.754Z,99279.83
2019-04-23T20:06:02.948Z,99286.81
2019-04-23T20:08:46.410Z,99288.23
2019-04-23T20:11:04.515Z,99290.38
2019-04-23T20:13:41.151Z,99284.45
2019-04-23T20:16:10.575Z,99286.70
2019-04-23T20:18:47.808Z,99290.28
2019-04-23T20:20:58.981Z,99292.41
2019-04-23T20:24:02.146Z,99285.25
2019-04-23T20:36:53.201Z,99280.73
2019-04-23T20:39:30.333Z,99279.08
2019-04-23T20:44:39.429Z,99289.56
2019-04-23T20:47:06.296Z,99288.98
2019-04-23T20:49:40.751Z,99290.77
2019-04-23T20:52:04.727Z,99294.13
2019-04-23T20:54:43.188Z,99288.09
2019-04-23T20:57:31.637Z,99291.30
2019-04-23T21:05:09.839Z,99285.88
2019-04-23T21:07:49.121Z,99287.69
2019-04-23T21:17:56.203Z,99276.02
2019-04-23T21:20:19.679Z,99285.69
2019-04-23T21:22:41.172Z,99276.78
2019-04-23T21:25:11.856Z,99283.40
2019-04-23T21:27:55.427Z,99281.52
2019-04-23T21:30:43.603Z,99280.28
2019-04-23T21:33:07.371Z,99279.44
2019-04-23T21:36:13.723Z,99286.81
2019-04-23T21:46:47.662Z,99283.27
2019-04-23T21:51:51.611Z,99285.97
2019-04-23T21:54:08.009Z,99284.83
2019-04-23T21:56:48.347Z,99287.53
2019-04-23T22:02:03.626Z,99289.67
2019-04-23T22:04:25.676Z,99292.31
2019-04-23T22:09:26.941Z,99296.52
2019-04-23T22:12:03.550Z,99295.23
2019-04-23T22:14:27.482Z,99294.42
2019-04-23T22:17:03.308Z,99294.00
2019-04-23T22:19:52.742Z,99291.27
2019-04-23T22:21:57.508Z,99293.42
2019-04-23T22:24:27.278Z,99298.77
2019-04-23T22:26:57.628Z,99296.03
2019-04-23T22:29:36.892Z,99299.03
2019-04-23T22:31:53.786Z,99297.28
2019-04-23T22:37:11.184Z,99294.27
2019-04-23T22:39:39.947Z,99293.69
2019-04-23T22:42:22.024Z,99293.91
2019-04-23T22:44:56.155Z,99287.66
2019-04-23T22:47:30.003Z,99290.39
2019-04-23T22:49:55.347Z,99289.52
2019-04-23T22:52:23.026Z,99289.52
2019-04-23T22:54:57.370Z,99285.77
2019-04-23T22:57:11.604Z,99285.30
2019-04-23T23:00:02.407Z,99284.97
2019-04-23T23:02:44.366Z,99284.74
2019-04-23T23:07:48.939Z,99284.98
2019-04-23T23:15:37.207Z,99280.41
2019-04-23T23:17:50.595Z,99286.17
2019-04-23T23:20:20.880Z,99287.39
2019-04-23T23:22:59.122Z,99284.64
2019-04-23T23:25:19.112Z,99286.30
2019-04-23T23:27:52.094Z,99286.30
2019-04-23T23:32:49.112Z,99294.78
2019-04-23T23:35:24.312Z,99295.73
2019-04-23T23:37:55.942Z,99294.02
2019-04-23T23:40:21.868Z,99290.86
2019-04-23T23:43:08.827Z,99289.45
2019-04-23T23:47:58.642Z,99291.25
2019-04-23T23:50:25.482Z,99295.13
2019-04-23T23:53:11.955Z,99298.14
2019-04-23T23:58:06.436Z,99294.61
